createdAt,value
2022-08-16T00:02:56.227Z,65.75
2022-08-16T00:05:58.017Z,66.29
2022-08-16T00:08:59.690Z,64.60
2022-08-16T00:12:05.228Z,64.42
2022-08-16T00:15:17.033Z,63.36
2022-08-16T00:18:26.085Z,63.95
2022-08-16T00:21:32.081Z,63.39
2022-08-16T00:24:34.566Z,64.03
2022-08-16T00:27:37.144Z,62.86
2022-08-16T00:30:40.052Z,63.37
2022-08-16T00:33:50.130Z,63.77
2022-08-16T00:36:55.760Z,64.93
2022-08-16T00:39:58.854Z,63.46
2022-08-16T00:43:01.264Z,62.99
2022-08-16T00:46:35.539Z,63.11
2022-08-16T00:49:39.247Z,62.54
2022-08-16T00:52:45.776Z,62.06
2022-08-16T00:55:56.588Z,63.79
2022-08-16T00:59:00.587Z,63.97
2022-08-16T01:02:30.953Z,63.84
2022-08-16T01:05:30.395Z,65.27
2022-08-16T01:08:36.967Z,63.48
2022-08-16T01:11:51.723Z,63.08
2022-08-16T01:14:59.014Z,65.14
2022-08-16T01:18:04.535Z,68.98
2022-08-16T01:21:33.817Z,69.70
2022-08-16T01:24:53.243Z,67.95
2022-08-16T01:28:00.336Z,67.18
2022-08-16T01:31:05.317Z,68.53
2022-08-16T01:34:07.244Z,71.58
2022-08-16T01:37:12.336Z,74.24
2022-08-16T01:40:20.451Z,71.77
2022-08-16T01:43:23.800Z,69.32
2022-08-16T01:46:39.449Z,68.00
2022-08-16T01:50:41.128Z,69.44
2022-08-16T01:53:07.017Z,68.69
2022-08-16T01:56:24.919Z,70.49
2022-08-16T01:59:28.817Z,69.10
2022-08-16T02:02:30.632Z,69.38
2022-08-16T02:05:32.619Z,70.21
2022-08-16T02:08:36.751Z,69.49
2022-08-16T02:11:48.081Z,71.19
2022-08-16T02:14:55.635Z,70.42
2022-08-16T02:18:01.192Z,72.70
2022-08-16T02:21:05.512Z,71.15
2022-08-16T02:24:31.902Z,71.89
2022-08-16T02:27:31.003Z,70.66
2022-08-16T02:30:37.031Z,71.55
2022-08-16T02:33:50.031Z,71.97
2022-08-16T02:36:52.484Z,74.53
2022-08-16T02:39:54.432Z,75.83
2022-08-16T02:42:56.447Z,74.46
2022-08-16T02:45:59.237Z,72.91
2022-08-16T02:49:02.117Z,73.33
2022-08-16T02:52:04.631Z,73.24
2022-08-16T02:55:12.660Z,71.72
2022-08-16T02:58:18.130Z,71.74
2022-08-16T03:01:24.736Z,75.68
2022-08-16T03:04:50.077Z,75.98
2022-08-16T03:07:54.097Z,75.71
2022-08-16T03:10:59.142Z,75.62
2022-08-16T03:14:01.514Z,74.12
2022-08-16T03:17:09.645Z,75.65
2022-08-16T03:20:13.635Z,76.77
2022-08-16T03:23:20.126Z,77.42
2022-08-16T03:26:22.285Z,78.18
2022-08-16T03:29:30.038Z,78.65
2022-08-16T03:32:32.060Z,78.73
2022-08-16T03:35:36.177Z,79.05
2022-08-16T03:38:38.774Z,77.31
2022-08-16T03:41:50.350Z,78.58
2022-08-16T03:44:53.092Z,80.43
2022-08-16T03:48:07.075Z,78.85
2022-08-16T03:51:12.235Z,79.08
2022-08-16T03:54:14.892Z,79.63
2022-08-16T03:57:16.672Z,80.28
2022-08-16T04:00:36.234Z,79.75
2022-08-16T04:03:43.046Z,79.53
2022-08-16T04:06:45.897Z,78.75
2022-08-16T04:09:48.229Z,77.27
2022-08-16T04:12:53.552Z,77.60
2022-08-16T04:16:06.680Z,78.80
2022-08-16T04:19:08.594Z,78.74
2022-08-16T04:22:11.328Z,78.34
2022-08-16T04:25:14.601Z,77.80
2022-08-16T04:28:51.709Z,76.76
2022-08-16T04:31:38.884Z,76.06
2022-08-16T04:34:48.156Z,75.77
2022-08-16T04:37:53.984Z,75.19
2022-08-16T04:40:57.200Z,74.63
2022-08-16T04:44:00.591Z,74.17
2022-08-16T04:47:21.802Z,74.16
2022-08-16T04:50:30.633Z,75.38
2022-08-16T04:53:33.361Z,74.29
2022-08-16T04:56:36.044Z,73.71
2022-08-16T04:59:47.875Z,73.16
2022-08-16T05:02:55.917Z,73.36
2022-08-16T05:06:00.027Z,72.05
2022-08-16T05:09:08.742Z,70.76
2022-08-16T05:12:10.993Z,70.84
2022-08-16T05:15:13.299Z,70.13
2022-08-16T05:18:16.671Z,70.73
2022-08-16T05:21:22.914Z,69.38
2022-08-16T05:24:25.004Z,69.63
2022-08-16T05:27:26.749Z,68.71
2022-08-16T05:30:36.823Z,67.67
2022-08-16T05:33:42.270Z,66.79
2022-08-16T05:36:44.717Z,65.79
2022-08-16T05:39:46.390Z,64.60
2022-08-16T05:42:49.370Z,64.67
2022-08-16T05:45:52.207Z,65.26
2022-08-16T05:48:54.989Z,67.23
2022-08-16T05:52:02.227Z,65.94
2022-08-16T05:55:05.570Z,68.33
2022-08-16T05:58:07.184Z,68.27
2022-08-16T06:01:10.411Z,66.64
2022-08-16T06:04:36.554Z,65.36
2022-08-16T06:07:36.509Z,64.33
2022-08-16T06:10:40.357Z,64.29
2022-08-16T06:14:03.813Z,65.00
2022-08-16T06:17:08.006Z,64.56
2022-08-16T06:20:11.068Z,64.31
2022-08-16T06:23:17.431Z,63.66
2022-08-16T06:26:19.638Z,63.08
2022-08-16T06:29:21.835Z,61.17
2022-08-16T06:32:27.834Z,59.65
2022-08-16T06:35:35.416Z,59.66
2022-08-16T06:38:55.893Z,58.18
2022-08-16T06:41:59.244Z,57.39
2022-08-16T06:45:02.286Z,56.90
2022-08-16T06:48:05.584Z,57.05
2022-08-16T06:51:08.984Z,55.59
2022-08-16T06:54:13.936Z,55.06
2022-08-16T06:57:18.206Z,54.80
2022-08-16T07:00:24.822Z,54.02
2022-08-16T07:03:32.188Z,54.39
2022-08-16T07:06:34.919Z,53.72
2022-08-16T07:09:38.531Z,53.29
2022-08-16T07:12:47.452Z,50.60
2022-08-16T07:16:04.648Z,49.71
2022-08-16T07:19:06.733Z,49.18
2022-08-16T07:22:39.052Z,48.99
2022-08-16T07:25:34.329Z,48.70
2022-08-16T07:28:42.076Z,48.22
2022-08-16T07:31:47.145Z,47.24
2022-08-16T07:34:50.905Z,46.75
2022-08-16T07:37:54.265Z,45.38
2022-08-16T07:41:01.572Z,45.03
2022-08-16T07:44:15.461Z,43.78
2022-08-16T07:47:18.656Z,41.66
2022-08-16T07:50:55.545Z,42.37
2022-08-16T07:53:49.565Z,41.19
2022-08-16T07:57:04.943Z,38.34
2022-08-16T08:00:08.241Z,36.86
2022-08-16T08:03:20.575Z,34.77
2022-08-16T08:06:28.626Z,32.84
2022-08-16T08:09:30.682Z,31.54
2022-08-16T08:12:36.168Z,31.33
2022-08-16T08:15:38.323Z,29.08
2022-08-16T08:19:00.602Z,27.55
2022-08-16T08:22:06.222Z,27.55
2022-08-16T08:25:09.295Z,27.41
2022-08-16T08:28:15.708Z,27.79
2022-08-16T08:31:17.671Z,25.88
2022-08-16T08:34:22.295Z,25.47
2022-08-16T08:37:27.660Z,24.91
2022-08-16T08:40:49.618Z,24.95
2022-08-16T08:43:51.618Z,23.22
2022-08-16T08:47:00.094Z,23.52
2022-08-16T08:50:07.039Z,22.22
2022-08-16T08:53:09.431Z,21.97
2022-08-16T08:56:23.074Z,20.30
2022-08-16T08:59:27.366Z,20.96
2022-08-16T09:02:30.161Z,19.06
2022-08-16T09:05:35.908Z,18.52
2022-08-16T09:08:39.988Z,19.93
2022-08-16T09:12:04.400Z,18.14
2022-08-16T09:15:13.458Z,17.67
2022-08-16T09:18:26.529Z,16.19
2022-08-16T09:21:31.313Z,17.24
2022-08-16T09:24:51.598Z,15.77
2022-08-16T09:27:57.853Z,15.45
2022-08-16T09:31:05.582Z,15.19
2022-08-16T09:34:07.481Z,13.95
2022-08-16T09:37:17.985Z,13.70
2022-08-16T09:40:32.907Z,14.06
2022-08-16T09:43:58.105Z,15.07
2022-08-16T09:47:03.537Z,15.17
2022-08-16T09:50:22.808Z,12.92
2022-08-16T09:53:25.861Z,12.98
2022-08-16T09:56:33.698Z,13.04
2022-08-16T09:59:38.607Z,11.95
2022-08-16T10:02:44.127Z,12.30
2022-08-16T10:05:47.602Z,11.55
2022-08-16T10:09:04.256Z,10.56
2022-08-16T10:12:28.244Z,11.71
2022-08-16T10:15:31.905Z,12.25
2022-08-16T10:18:56.800Z,13.30
2022-08-16T10:21:57.430Z,14.51
2022-08-16T10:25:00.313Z,15.61
2022-08-16T10:28:27.741Z,14.73
2022-08-16T10:31:45.929Z,18.49
2022-08-16T10:34:47.530Z,19.23
2022-08-16T10:37:53.930Z,18.80
2022-08-16T10:40:55.616Z,18.74
2022-08-16T10:43:58.512Z,19.86
2022-08-16T10:47:00.430Z,20.20
2022-08-16T10:50:06.979Z,20.02
2022-08-16T10:53:21.588Z,20.52
2022-08-16T10:56:56.131Z,20.97
2022-08-16T10:59:56.136Z,21.77
2022-08-16T11:03:04.889Z,22.18
2022-08-16T11:06:09.514Z,23.13
2022-08-16T11:09:25.532Z,21.90
2022-08-16T11:12:30.380Z,21.15
2022-08-16T11:15:34.977Z,21.90
2022-08-16T11:19:02.862Z,21.87
2022-08-16T11:22:38.943Z,22.19
2022-08-16T11:32:11.287Z,23.06
2022-08-16T11:38:57.290Z,25.19
2022-08-16T11:42:00.203Z,25.25
2022-08-16T11:45:02.106Z,25.65
2022-08-16T11:48:05.518Z,25.49
2022-08-16T11:51:07.229Z,27.30
2022-08-16T11:54:21.188Z,27.34
2022-08-16T11:57:23.968Z,26.30
2022-08-16T12:00:33.906Z,28.66
2022-08-16T12:03:49.036Z,29.17
2022-08-16T12:06:53.665Z,26.76
2022-08-16T12:09:56.218Z,26.31
2022-08-16T12:12:58.094Z,26.31
2022-08-16T12:16:06.708Z,25.99
2022-08-16T12:19:13.827Z,25.78
2022-08-16T12:22:19.779Z,25.36
2022-08-16T12:25:24.560Z,25.90
2022-08-16T12:28:52.189Z,25.77
2022-08-16T12:32:01.608Z,25.11
2022-08-16T12:35:15.122Z,25.06
2022-08-16T12:38:41.759Z,24.49
2022-08-16T12:41:45.011Z,24.32
2022-08-16T12:44:48.355Z,24.00
2022-08-16T12:48:32.980Z,23.66
2022-08-16T12:51:58.502Z,22.33
2022-08-16T12:54:59.344Z,21.52
2022-08-16T12:58:00.999Z,20.20
2022-08-16T13:01:03.368Z,17.99
2022-08-16T13:04:12.213Z,16.80
2022-08-16T13:07:27.352Z,15.66
2022-08-16T13:10:38.030Z,14.26
2022-08-16T13:13:40.957Z,13.58
2022-08-16T13:16:43.317Z,12.90
2022-08-16T13:20:08.093Z,11.65
2022-08-16T13:23:11.545Z,11.42
2022-08-16T13:26:17.992Z,11.37
2022-08-16T13:29:20.060Z,9.70
2022-08-16T13:32:39.610Z,11.75
2022-08-16T13:35:44.921Z,11.78
2022-08-16T13:38:46.965Z,11.70
2022-08-16T13:41:53.915Z,11.04
2022-08-16T13:44:58.281Z,11.12
2022-08-16T13:48:02.331Z,10.45
2022-08-16T13:51:07.521Z,9.92
2022-08-16T13:54:09.491Z,9.81
2022-08-16T13:57:11.926Z,13.30
2022-08-16T14:00:15.870Z,13.21
2022-08-16T14:03:22.059Z,12.81
2022-08-16T14:06:25.760Z,12.93
2022-08-16T14:09:31.926Z,12.90
2022-08-16T14:12:34.786Z,13.70
2022-08-16T14:15:37.939Z,15.79
2022-08-16T14:18:43.936Z,18.07
2022-08-16T14:21:56.623Z,16.65
2022-08-16T14:25:00.205Z,16.09
2022-08-16T14:28:01.834Z,18.63
2022-08-16T14:31:03.632Z,21.04
2022-08-16T14:34:06.308Z,22.67
2022-08-16T14:37:13.189Z,21.81
2022-08-16T14:40:17.939Z,22.41
2022-08-16T14:43:20.976Z,23.24
2022-08-16T14:46:24.014Z,23.62
2022-08-16T14:49:26.560Z,23.71
2022-08-16T14:52:54.197Z,23.60
2022-08-16T14:55:50.274Z,23.40
2022-08-16T14:58:52.038Z,22.84
2022-08-16T15:01:58.740Z,22.69
2022-08-16T15:05:04.370Z,23.14
2022-08-16T15:08:06.834Z,22.96
2022-08-16T15:11:09.406Z,23.29
2022-08-16T15:14:11.176Z,23.24
2022-08-16T15:17:15.995Z,23.35
2022-08-16T15:20:21.491Z,23.10
2022-08-16T15:23:25.146Z,23.29
2022-08-16T15:26:34.527Z,23.18
2022-08-16T15:29:46.234Z,23.40
2022-08-16T15:33:01.870Z,23.49
2022-08-16T15:36:04.780Z,23.48
2022-08-16T15:39:30.472Z,22.65
2022-08-16T15:42:29.094Z,21.93
2022-08-16T15:45:55.563Z,22.34
2022-08-16T15:48:57.993Z,22.58
2022-08-16T15:52:01.162Z,22.06
2022-08-16T15:55:23.719Z,22.44
2022-08-16T15:58:35.393Z,23.80
2022-08-16T16:01:40.260Z,24.43
2022-08-16T16:04:42.127Z,24.76
2022-08-16T16:07:56.687Z,24.81
2022-08-16T16:11:07.073Z,24.85
2022-08-16T16:14:08.752Z,25.64
2022-08-16T16:17:16.643Z,25.33
2022-08-16T16:20:20.555Z,25.42
2022-08-16T16:23:27.084Z,25.43
2022-08-16T16:26:31.002Z,26.28
2022-08-16T16:29:37.142Z,26.28
2022-08-16T16:32:42.653Z,25.66
2022-08-16T16:35:46.652Z,26.15
2022-08-16T16:38:50.379Z,26.61
2022-08-16T16:41:52.521Z,27.13
2022-08-16T16:45:00.915Z,27.30
2022-08-16T16:48:12.631Z,27.65
2022-08-16T16:51:15.562Z,29.89
2022-08-16T16:54:22.473Z,30.01
2022-08-16T16:57:48.939Z,30.25
2022-08-16T17:00:56.468Z,30.51
2022-08-16T17:04:19.285Z,31.36
2022-08-16T17:07:24.326Z,31.92
2022-08-16T17:10:45.933Z,33.02
2022-08-16T17:13:53.346Z,32.39
2022-08-16T17:16:55.560Z,32.65
2022-08-16T17:19:59.253Z,33.29
2022-08-16T17:23:01.294Z,34.04
2022-08-16T17:26:03.147Z,35.61
2022-08-16T17:29:12.319Z,34.74
2022-08-16T17:32:34.066Z,35.34
2022-08-16T17:35:55.421Z,35.16
2022-08-16T17:38:58.002Z,35.51
2022-08-16T17:42:02.326Z,36.16
2022-08-16T17:45:04.426Z,36.95
2022-08-16T17:48:06.687Z,37.96
2022-08-16T17:51:08.307Z,38.95
2022-08-16T17:54:20.604Z,38.88
2022-08-16T17:57:31.609Z,38.68
2022-08-16T18:00:33.635Z,39.12
2022-08-16T18:04:02.945Z,39.67
2022-08-16T18:07:00.631Z,39.85
2022-08-16T18:10:02.276Z,39.26
2022-08-16T18:13:07.849Z,40.36
2022-08-16T18:16:14.046Z,38.71
2022-08-16T18:19:16.498Z,39.93
2022-08-16T18:22:30.330Z,40.05
2022-08-16T18:25:33.021Z,39.91
2022-08-16T18:28:37.799Z,40.15
2022-08-16T18:31:39.836Z,39.39
2022-08-16T18:34:42.560Z,40.40
2022-08-16T18:37:44.256Z,41.02
2022-08-16T18:40:46.569Z,40.31
2022-08-16T18:44:22.510Z,40.86
2022-08-16T18:47:10.389Z,41.15
2022-08-16T18:50:12.147Z,41.38
2022-08-16T18:53:15.876Z,41.50
2022-08-16T18:56:17.636Z,42.51
2022-08-16T18:59:19.500Z,43.06
2022-08-16T19:02:57.355Z,43.76
2022-08-16T19:05:50.333Z,42.19
2022-08-16T19:08:52.123Z,42.83
2022-08-16T19:11:54.192Z,44.09
2022-08-16T19:14:57.689Z,44.50
2022-08-16T19:18:00.535Z,44.61
2022-08-16T19:21:02.347Z,45.75
2022-08-16T19:24:04.593Z,45.84
2022-08-16T19:27:10.164Z,44.43
2022-08-16T19:30:12.571Z,45.42
2022-08-16T19:33:14.483Z,45.00
2022-08-16T19:36:30.470Z,44.27
2022-08-16T19:39:36.630Z,44.92
2022-08-16T19:42:39.750Z,45.18
2022-08-16T19:45:45.935Z,46.68
2022-08-16T19:48:48.518Z,46.32
2022-08-16T19:51:51.991Z,45.52
2022-08-16T19:54:59.134Z,45.02
2022-08-16T19:58:01.142Z,44.42
2022-08-16T20:01:03.612Z,45.29
2022-08-16T20:04:06.001Z,45.34
2022-08-16T20:07:08.245Z,45.12
2022-08-16T20:10:11.937Z,46.08
2022-08-16T20:13:22.821Z,47.54
2022-08-16T20:16:25.592Z,46.83
2022-08-16T20:19:29.744Z,47.14
2022-08-16T20:22:54.840Z,47.65
2022-08-16T20:25:56.863Z,46.51
2022-08-16T20:28:58.478Z,46.96
2022-08-16T20:32:00.254Z,46.32
2022-08-16T20:35:03.690Z,48.53
2022-08-16T20:38:06.761Z,46.57
2022-08-16T20:41:09.462Z,46.67
2022-08-16T20:44:12.289Z,46.61
2022-08-16T20:47:14.429Z,46.30
2022-08-16T20:50:16.438Z,46.23
2022-08-16T20:53:18.195Z,46.12
2022-08-16T20:56:20.155Z,46.33
2022-08-16T20:59:21.936Z,46.68
2022-08-16T21:02:27.125Z,46.22
2022-08-16T21:05:31.292Z,46.65
2022-08-16T21:08:52.287Z,47.07
2022-08-16T21:11:57.361Z,46.92
2022-08-16T21:15:07.038Z,46.88
2022-08-16T21:18:09.279Z,48.41
2022-08-16T21:21:12.264Z,48.33
2022-08-16T21:24:14.511Z,48.91
2022-08-16T21:27:17.878Z,50.97
2022-08-16T21:30:25.070Z,53.00
2022-08-16T21:33:32.289Z,53.02
2022-08-16T21:36:34.512Z,54.01
2022-08-16T21:39:38.129Z,52.99
2022-08-16T21:42:42.061Z,52.85
2022-08-16T21:45:45.737Z,52.67
2022-08-16T21:48:47.513Z,52.83
2022-08-16T21:51:49.163Z,53.38
2022-08-16T21:54:52.928Z,53.69
2022-08-16T21:57:58.159Z,54.26
2022-08-16T22:01:01.646Z,54.60
2022-08-16T22:04:36.512Z,54.52
2022-08-16T22:07:26.167Z,55.25
2022-08-16T22:11:05.580Z,56.10
2022-08-16T22:13:58.636Z,57.24
2022-08-16T22:17:00.945Z,56.65
2022-08-16T22:20:05.695Z,56.92
2022-08-16T22:23:15.311Z,57.21
2022-08-16T22:26:17.430Z,57.35
2022-08-16T22:29:19.340Z,57.08
2022-08-16T22:32:22.285Z,57.29
2022-08-16T22:35:24.672Z,57.31
2022-08-16T22:38:54.411Z,57.55
2022-08-16T22:41:50.613Z,57.48
2022-08-16T22:44:52.636Z,57.38
2022-08-16T22:47:55.032Z,56.86
2022-08-16T22:50:56.834Z,56.96
2022-08-16T22:53:59.091Z,56.72
2022-08-16T22:57:01.047Z,56.67
2022-08-16T23:00:05.942Z,56.29
2022-08-16T23:03:11.304Z,56.66
2022-08-16T23:06:14.201Z,56.35
2022-08-16T23:09:15.904Z,56.71
2022-08-16T23:12:17.518Z,57.49
2022-08-16T23:15:32.641Z,57.77
2022-08-16T23:18:35.047Z,56.41
2022-08-16T23:21:40.463Z,58.52
2022-08-16T23:24:55.031Z,58.08
2022-08-16T23:27:59.006Z,57.99
2022-08-16T23:31:00.865Z,57.99
2022-08-16T23:34:02.664Z,58.66
2022-08-16T23:37:04.276Z,58.64
2022-08-16T23:40:11.664Z,59.50
2022-08-16T23:43:17.588Z,59.05
2022-08-16T23:46:19.954Z,58.30
2022-08-16T23:49:56.345Z,58.63
2022-08-16T23:52:55.703Z,60.54
2022-08-16T23:56:02.477Z,60.73
2022-08-16T23:59:05.733Z,60.28
